Denise A. Bouchard — WDH3802 — position and weather

sailwx.info

Track history (hours):
 
Tides and Currents Weather Stations Pressure Air Temp Water Temp Dewpoint Dewpoint Depression Visibility Wind Speed Wind Dir Waves Ship Positions

Denise A. Bouchard

Owner: Tug Denise A, Bouchard Corp, Melville, NY. More information available from US FCC via Universal Licensing System and Coast Guard Vessel Documentation Center.

Last reported at 2017-Dec-11 09:31 UTC. Time now 2017-Dec-11 09:46 UTC.
Position N 39°25' W 075°31'.

Length 160 m; draft 5 m.

Type: Tug. MMSI: 367611060.

Date/timePositionNaut miles runAvg speedWind from/ knotsBaromVisibWave heightAir tempDewpointWater temp
2017-Dec-11 09:31N 39°25' W 075°31'4 8.2
2017-Dec-11 09:01N 39°22' W 075°27'4 8.0
2017-Dec-11 08:31N 39°19' W 075°24'4 7.6
2017-Dec-11 08:01N 39°16' W 075°20'4 7.6
2017-Dec-11 07:30N 39°13' W 075°17'4 7.6
2017-Dec-11 07:01N 39°09' W 075°15'4 8.0
2017-Dec-11 06:30N 39°06' W 075°12'58 5.0
2017-Dec-10 18:58N 39°34' W 074°06'8 7.3
2017-Dec-10 17:53N 39°41' W 074°02'48 7.3
2017-Dec-10 11:20N 40°29' W 073°54'3 8.2
2017-Dec-10 11:00N 40°30' W 073°58'4 7.4
2017-Dec-10 10:30N 40°32' W 074°01'4 7.6
2017-Dec-10 10:00N 40°36' W 074°03'4 7.8
2017-Dec-10 09:30N 40°40' W 074°03'4 8.2
2017-Dec-10 09:01N 40°43' W 073°59'4 8.1
2017-Dec-10 08:30N 40°46' W 073°57'3 6.3
2017-Dec-10 07:59N 40°48' W 073°53'2 4.9
2017-Dec-10 07:30N 40°48' W 073°50'8 0.3
2017-Dec-09 02:33N 40°53' W 073°42'3 9.5
2017-Dec-09 02:15N 40°52' W 073°45'2 9.6
2017-Dec-09 02:00N 40°50' W 073°47'4 7.6
2017-Dec-09 01:31N 40°48' W 073°51'4 7.1
2017-Dec-09 01:00N 40°47' W 073°56'3 6.4
2017-Dec-09 00:30N 40°44' W 073°58'3 5.7
2017-Dec-09 00:00N 40°42' W 074°00'3 5.5
2017-Dec-08 23:31N 40°40' W 074°02'1 2.2
2017-Dec-08 23:01N 40°39' W 074°03'0 0.2
2017-Dec-08 22:30N 40°38' W 074°03'0 0.3
2017-Dec-08 22:01N 40°39' W 074°03'0 0.1
2017-Dec-08 21:30N 40°39' W 074°03'0 0.2
2017-Dec-08 21:00N 40°39' W 074°03'3 6.3
2017-Dec-08 20:30N 40°39' W 074°07'3 7.0
2017-Dec-08 20:01N 40°38' W 074°12'6 2.3
2017-Dec-08 17:21N 40°33' W 074°15'0 0.4
2017-Dec-08 16:58N 40°33' W 074°15'0 0.0
2017-Dec-08 16:29N 40°33' W 074°15'0 0.0
2017-Dec-08 12:17N 40°33' W 074°15'2 3.8
2017-Dec-08 11:50N 40°34' W 074°13'2 6.8
2017-Dec-08 11:28N 40°36' W 074°12'1 1.3
2017-Dec-08 10:59N 40°37' W 074°12'1 0.4
2017-Dec-08 08:53N 40°36' W 074°12'3 7.8
2017-Dec-08 08:30N 40°39' W 074°11'4 7.9
2017-Dec-08 08:00N 40°39' W 074°06'4 7.9
2017-Dec-08 07:30N 40°41' W 074°02'1 2.4
2017-Dec-08 07:00N 40°41' W 074°00'0 0.5
2017-Dec-08 06:30N 40°42' W 074°00'1 2.3
2017-Dec-08 06:01N 40°41' W 074°01'4 8.1
2017-Dec-08 05:30N 40°39' W 074°06'1 2.0
2017-Dec-08 05:00N 40°39' W 074°07'0 0.0
2017-Dec-08 04:29N 40°39' W 074°07'0 0.0
2017-Dec-08 04:00N 40°39' W 074°07'0 0.0
2017-Dec-08 03:30N 40°39' W 074°07'0 0.0
2017-Dec-08 02:59N 40°38' W 074°07'0 0.0
2017-Dec-08 02:29N 40°39' W 074°07'0 0.0
2017-Dec-08 02:00N 40°38' W 074°07'0 0.0
2017-Dec-08 01:31N 40°39' W 074°07'0 0.0
2017-Dec-08 01:00N 40°39' W 074°07'0 0.0
2017-Dec-08 00:30N 40°39' W 074°07'0 0.3
2017-Dec-08 00:00N 40°39' W 074°07'4 8.2
2017-Dec-07 23:30N 40°36' W 074°03'1 1.3
2017-Dec-07 23:00N 40°37' W 074°03'4 8.4
2017-Dec-07 22:30N 40°39' W 074°08'4 6.9
2017-Dec-07 22:00N 40°37' W 074°12'4 7.0
2017-Dec-07 21:27N 40°33' W 074°14'1 1.0
2017-Dec-07 20:17N 40°33' W 074°15'2 6.2
2017-Dec-07 19:58N 40°34' W 074°13'3 7.3
2017-Dec-07 19:31N 40°37' W 074°12'3 6.2
2017-Dec-07 19:00N 40°39' W 074°09'3 6.8
2017-Dec-07 18:30N 40°39' W 074°04'3 6.7
2017-Dec-07 18:01N 40°41' W 074°01'4 7.2
2017-Dec-07 17:30N 40°44' W 073°58'5 7.3
2017-Dec-07 16:47N 40°48' W 073°54'3 7.0
2017-Dec-07 16:25N 40°48' W 073°50'  
2017-Dec-04 06:59N 38°50' W 075°02'710.8
2017-Dec-04 06:19N 38°56' W 075°06'4 6.9
2017-Dec-04 05:41N 38°60' W 075°08'420.3
2017-Dec-04 05:29N 39°04' W 075°10'710.6
2017-Dec-04 04:52N 39°09' W 075°15'4 9.1
2017-Dec-04 04:26N 39°13' W 075°17'4 6.0
2017-Dec-04 03:48N 39°16' W 075°20'1 2.7
2017-Dec-04 03:29N 39°16' W 075°21'4 7.9
2017-Dec-04 03:00N 39°19' W 075°24'4 7.2
2017-Dec-04 02:30N 39°22' W 075°27'4 7.1
2017-Dec-04 01:58N 39°25' W 075°31'3 7.0
2017-Dec-04 01:30N 39°27' W 075°34'4 7.3
2017-Dec-04 01:00N 39°31' W 075°33'4 7.1
2017-Dec-04 00:30N 39°34' W 075°34'1 2.8
2017-Dec-04 00:00N 39°35' W 075°36'0 0.0
2017-Dec-03 23:30N 39°35' W 075°36'0 0.0
2017-Dec-03 23:00N 39°35' W 075°36'0 0.0
2017-Dec-03 22:31N 39°35' W 075°36'0 0.0
2017-Dec-03 22:00N 39°35' W 075°36'0 0.0
2017-Dec-03 21:31N 39°35' W 075°36'0 0.0
2017-Dec-03 21:00N 39°35' W 075°36'0 0.0
2017-Dec-03 20:30N 39°35' W 075°36'0 0.0
2017-Dec-03 20:00N 39°35' W 075°36'0 0.0
2017-Dec-03 19:30N 39°35' W 075°36'0 0.0
2017-Dec-03 19:00N 39°35' W 075°36'0 0.0
2017-Dec-03 18:31N 39°35' W 075°36'0 0.0
2017-Dec-03 18:00N 39°35' W 075°36'0 0.0
2017-Dec-03 17:30N 39°35' W 075°36'0 0.0
2017-Dec-03 17:00N 39°35' W 075°36'0 0.0
2017-Dec-03 16:30N 39°35' W 075°36'0 0.0
2017-Dec-03 16:01N 39°35' W 075°36'0 0.0
2017-Dec-03 15:30N 39°35' W 075°36'0 0.0
2017-Dec-03 15:00N 39°35' W 075°36'0 0.0
2017-Dec-03 14:31N 39°35' W 075°36'0 0.0
2017-Dec-03 14:00N 39°35' W 075°36'0 0.0
2017-Dec-03 13:30N 39°35' W 075°36'0 0.0
2017-Dec-03 13:00N 39°35' W 075°36'0 0.0
2017-Dec-03 12:30N 39°35' W 075°36'0 0.0
2017-Dec-03 12:00N 39°35' W 075°36'0 0.0
2017-Dec-03 11:31N 39°35' W 075°36'0 0.0
2017-Dec-03 11:00N 39°35' W 075°36'0 0.0
2017-Dec-03 10:30N 39°35' W 075°36'0 0.0
2017-Dec-03 10:00N 39°35' W 075°36'0 0.0
2017-Dec-03 09:30N 39°35' W 075°36'0 0.0
2017-Dec-03 09:00N 39°35' W 075°36'0 0.0
2017-Dec-03 08:30N 39°35' W 075°36'0 0.0
2017-Dec-03 08:00N 39°35' W 075°36'0 0.0
2017-Dec-03 07:31N 39°35' W 075°36'0 0.0
2017-Dec-03 07:00N 39°35' W 075°36'0 0.0
2017-Dec-03 06:30N 39°35' W 075°36'0 0.0
2017-Dec-03 06:00N 39°35' W 075°36'0 0.0
2017-Dec-03 05:30N 39°35' W 075°36'0 0.0
2017-Dec-03 05:00N 39°35' W 075°36'0 0.0
2017-Dec-03 04:30N 39°35' W 075°36'0 0.0
2017-Dec-03 04:00N 39°35' W 075°36'0 0.0
2017-Dec-03 03:30N 39°35' W 075°36'0 0.0
2017-Dec-03 03:00N 39°35' W 075°36'0 0.0
2017-Dec-03 02:30N 39°35' W 075°36'0 0.0
2017-Dec-03 02:01N 39°35' W 075°36'0 0.0
2017-Dec-03 01:30N 39°35' W 075°36'0 0.0
2017-Dec-03 01:00N 39°35' W 075°36'0 0.0
2017-Dec-03 00:30N 39°35' W 075°36'0 0.0
2017-Dec-03 00:00N 39°35' W 075°36'1 2.2
2017-Dec-02 23:31N 39°35' W 075°34'3 6.0
2017-Dec-02 23:00N 39°32' W 075°33'3 6.5
2017-Dec-02 22:31N 39°29' W 075°34'5 8.3
2017-Dec-02 21:57N 39°25' W 075°31'3 7.2
2017-Dec-02 21:28N 39°22' W 075°28'3 6.5
2017-Dec-02 21:00N 39°20' W 075°25'4 7.1
2017-Dec-02 20:24N 39°17' W 075°21'4 7.2
2017-Dec-02 19:54N 39°14' W 075°18'3 6.6
2017-Dec-02 19:29N 39°12' W 075°17'  
Track history (hours):
 
Tides and Currents Weather Stations Pressure Air Temp Water Temp Dewpoint Dewpoint Depression Visibility Wind Speed Wind Dir Waves Ship Positions

Denise A. Bouchard

Owner: Tug Denise A, Bouchard Corp, Melville, NY. More information available from US FCC via Universal Licensing System and Coast Guard Vessel Documentation Center.

Last reported at 2017-Dec-11 09:31 UTC. Time now 2017-Dec-11 09:46 UTC.
Position N 39°25' W 075°31'.

Length 160 m; draft 5 m.

Type: Tug. MMSI: 367611060.

Date/timePositionNaut miles runAvg speedWind from/ knotsBaromVisibWave heightAir tempDewpointWater temp
2017-Dec-11 09:31N 39°25' W 075°31'4 8.2
2017-Dec-11 09:01N 39°22' W 075°27'4 8.0
2017-Dec-11 08:31N 39°19' W 075°24'4 7.6
2017-Dec-11 08:01N 39°16' W 075°20'4 7.6
2017-Dec-11 07:30N 39°13' W 075°17'4 7.6
2017-Dec-11 07:01N 39°09' W 075°15'4 8.0
2017-Dec-11 06:30N 39°06' W 075°12'58 5.0
2017-Dec-10 18:58N 39°34' W 074°06'8 7.3
2017-Dec-10 17:53N 39°41' W 074°02'48 7.3
2017-Dec-10 11:20N 40°29' W 073°54'3 8.2
2017-Dec-10 11:00N 40°30' W 073°58'4 7.4
2017-Dec-10 10:30N 40°32' W 074°01'4 7.6
2017-Dec-10 10:00N 40°36' W 074°03'4 7.8
2017-Dec-10 09:30N 40°40' W 074°03'4 8.2
2017-Dec-10 09:01N 40°43' W 073°59'4 8.1
2017-Dec-10 08:30N 40°46' W 073°57'3 6.3
2017-Dec-10 07:59N 40°48' W 073°53'2 4.9
2017-Dec-10 07:30N 40°48' W 073°50'8 0.3
2017-Dec-09 02:33N 40°53' W 073°42'3 9.5
2017-Dec-09 02:15N 40°52' W 073°45'2 9.6
2017-Dec-09 02:00N 40°50' W 073°47'4 7.6
2017-Dec-09 01:31N 40°48' W 073°51'4 7.1
2017-Dec-09 01:00N 40°47' W 073°56'3 6.4
2017-Dec-09 00:30N 40°44' W 073°58'3 5.7
2017-Dec-09 00:00N 40°42' W 074°00'3 5.5
2017-Dec-08 23:31N 40°40' W 074°02'1 2.2
2017-Dec-08 23:01N 40°39' W 074°03'0 0.2
2017-Dec-08 22:30N 40°38' W 074°03'0 0.3
2017-Dec-08 22:01N 40°39' W 074°03'0 0.1
2017-Dec-08 21:30N 40°39' W 074°03'0 0.2
2017-Dec-08 21:00N 40°39' W 074°03'3 6.3
2017-Dec-08 20:30N 40°39' W 074°07'3 7.0
2017-Dec-08 20:01N 40°38' W 074°12'6 2.3
2017-Dec-08 17:21N 40°33' W 074°15'0 0.4
2017-Dec-08 16:58N 40°33' W 074°15'0 0.0
2017-Dec-08 16:29N 40°33' W 074°15'0 0.0
2017-Dec-08 12:17N 40°33' W 074°15'2 3.8
2017-Dec-08 11:50N 40°34' W 074°13'2 6.8
2017-Dec-08 11:28N 40°36' W 074°12'1 1.3
2017-Dec-08 10:59N 40°37' W 074°12'1 0.4
2017-Dec-08 08:53N 40°36' W 074°12'3 7.8
2017-Dec-08 08:30N 40°39' W 074°11'4 7.9
2017-Dec-08 08:00N 40°39' W 074°06'4 7.9
2017-Dec-08 07:30N 40°41' W 074°02'1 2.4
2017-Dec-08 07:00N 40°41' W 074°00'0 0.5
2017-Dec-08 06:30N 40°42' W 074°00'1 2.3
2017-Dec-08 06:01N 40°41' W 074°01'4 8.1
2017-Dec-08 05:30N 40°39' W 074°06'1 2.0
2017-Dec-08 05:00N 40°39' W 074°07'0 0.0
2017-Dec-08 04:29N 40°39' W 074°07'0 0.0
2017-Dec-08 04:00N 40°39' W 074°07'0 0.0
2017-Dec-08 03:30N 40°39' W 074°07'0 0.0
2017-Dec-08 02:59N 40°38' W 074°07'0 0.0
2017-Dec-08 02:29N 40°39' W 074°07'0 0.0
2017-Dec-08 02:00N 40°38' W 074°07'0 0.0
2017-Dec-08 01:31N 40°39' W 074°07'0 0.0
2017-Dec-08 01:00N 40°39' W 074°07'0 0.0
2017-Dec-08 00:30N 40°39' W 074°07'0 0.3
2017-Dec-08 00:00N 40°39' W 074°07'4 8.2
2017-Dec-07 23:30N 40°36' W 074°03'1 1.3
2017-Dec-07 23:00N 40°37' W 074°03'4 8.4
2017-Dec-07 22:30N 40°39' W 074°08'4 6.9
2017-Dec-07 22:00N 40°37' W 074°12'4 7.0
2017-Dec-07 21:27N 40°33' W 074°14'1 1.0
2017-Dec-07 20:17N 40°33' W 074°15'2 6.2
2017-Dec-07 19:58N 40°34' W 074°13'3 7.3
2017-Dec-07 19:31N 40°37' W 074°12'3 6.2
2017-Dec-07 19:00N 40°39' W 074°09'3 6.8
2017-Dec-07 18:30N 40°39' W 074°04'3 6.7
2017-Dec-07 18:01N 40°41' W 074°01'4 7.2
2017-Dec-07 17:30N 40°44' W 073°58'5 7.3
2017-Dec-07 16:47N 40°48' W 073°54'3 7.0
2017-Dec-07 16:25N 40°48' W 073°50'  
2017-Dec-04 06:59N 38°50' W 075°02'710.8
2017-Dec-04 06:19N 38°56' W 075°06'4 6.9
2017-Dec-04 05:41N 38°60' W 075°08'420.3
2017-Dec-04 05:29N 39°04' W 075°10'710.6
2017-Dec-04 04:52N 39°09' W 075°15'4 9.1
2017-Dec-04 04:26N 39°13' W 075°17'4 6.0
2017-Dec-04 03:48N 39°16' W 075°20'1 2.7
2017-Dec-04 03:29N 39°16' W 075°21'4 7.9
2017-Dec-04 03:00N 39°19' W 075°24'4 7.2
2017-Dec-04 02:30N 39°22' W 075°27'4 7.1
2017-Dec-04 01:58N 39°25' W 075°31'3 7.0
2017-Dec-04 01:30N 39°27' W 075°34'4 7.3
2017-Dec-04 01:00N 39°31' W 075°33'4 7.1
2017-Dec-04 00:30N 39°34' W 075°34'1 2.8
2017-Dec-04 00:00N 39°35' W 075°36'0 0.0
2017-Dec-03 23:30N 39°35' W 075°36'0 0.0
2017-Dec-03 23:00N 39°35' W 075°36'0 0.0
2017-Dec-03 22:31N 39°35' W 075°36'0 0.0
2017-Dec-03 22:00N 39°35' W 075°36'0 0.0
2017-Dec-03 21:31N 39°35' W 075°36'0 0.0
2017-Dec-03 21:00N 39°35' W 075°36'0 0.0
2017-Dec-03 20:30N 39°35' W 075°36'0 0.0
2017-Dec-03 20:00N 39°35' W 075°36'0 0.0
2017-Dec-03 19:30N 39°35' W 075°36'0 0.0
2017-Dec-03 19:00N 39°35' W 075°36'0 0.0
2017-Dec-03 18:31N 39°35' W 075°36'0 0.0
2017-Dec-03 18:00N 39°35' W 075°36'0 0.0
2017-Dec-03 17:30N 39°35' W 075°36'0 0.0
2017-Dec-03 17:00N 39°35' W 075°36'0 0.0
2017-Dec-03 16:30N 39°35' W 075°36'0 0.0
2017-Dec-03 16:01N 39°35' W 075°36'0 0.0
2017-Dec-03 15:30N 39°35' W 075°36'0 0.0
2017-Dec-03 15:00N 39°35' W 075°36'0 0.0
2017-Dec-03 14:31N 39°35' W 075°36'0 0.0
2017-Dec-03 14:00N 39°35' W 075°36'0 0.0
2017-Dec-03 13:30N 39°35' W 075°36'0 0.0
2017-Dec-03 13:00N 39°35' W 075°36'0 0.0
2017-Dec-03 12:30N 39°35' W 075°36'0 0.0
2017-Dec-03 12:00N 39°35' W 075°36'0 0.0
2017-Dec-03 11:31N 39°35' W 075°36'0 0.0
2017-Dec-03 11:00N 39°35' W 075°36'0 0.0
2017-Dec-03 10:30N 39°35' W 075°36'0 0.0
2017-Dec-03 10:00N 39°35' W 075°36'0 0.0
2017-Dec-03 09:30N 39°35' W 075°36'0 0.0
2017-Dec-03 09:00N 39°35' W 075°36'0 0.0
2017-Dec-03 08:30N 39°35' W 075°36'0 0.0
2017-Dec-03 08:00N 39°35' W 075°36'0 0.0
2017-Dec-03 07:31N 39°35' W 075°36'0 0.0
2017-Dec-03 07:00N 39°35' W 075°36'0 0.0
2017-Dec-03 06:30N 39°35' W 075°36'0 0.0
2017-Dec-03 06:00N 39°35' W 075°36'0 0.0
2017-Dec-03 05:30N 39°35' W 075°36'0 0.0
2017-Dec-03 05:00N 39°35' W 075°36'0 0.0
2017-Dec-03 04:30N 39°35' W 075°36'0 0.0
2017-Dec-03 04:00N 39°35' W 075°36'0 0.0
2017-Dec-03 03:30N 39°35' W 075°36'0 0.0
2017-Dec-03 03:00N 39°35' W 075°36'0 0.0
2017-Dec-03 02:30N 39°35' W 075°36'0 0.0
2017-Dec-03 02:01N 39°35' W 075°36'0 0.0
2017-Dec-03 01:30N 39°35' W 075°36'0 0.0
2017-Dec-03 01:00N 39°35' W 075°36'0 0.0
2017-Dec-03 00:30N 39°35' W 075°36'0 0.0
2017-Dec-03 00:00N 39°35' W 075°36'1 2.2
2017-Dec-02 23:31N 39°35' W 075°34'3 6.0
2017-Dec-02 23:00N 39°32' W 075°33'3 6.5
2017-Dec-02 22:31N 39°29' W 075°34'5 8.3
2017-Dec-02 21:57N 39°25' W 075°31'3 7.2
2017-Dec-02 21:28N 39°22' W 075°28'3 6.5
2017-Dec-02 21:00N 39°20' W 075°25'4 7.1
2017-Dec-02 20:24N 39°17' W 075°21'4 7.2
2017-Dec-02 19:54N 39°14' W 075°18'3 6.6
2017-Dec-02 19:29N 39°12' W 075°17'  

Dump ship's entire track history